Pacific Princess — ZCDS3 — position and weather

sailwx.info

Track history (hours):
 
Tides and Currents Weather Stations Pressure Air Temp Water Temp Dewpoint Dewpoint Depression Visibility Wind Speed Wind Dir Waves Ship Positions

Pacific Princess (Bermuda)

Last reported at 2017-Aug-17 03:06 UTC. Time now 2017-Aug-17 03:39 UTC.
Position N 56°55' W 001°54'.

Length 180.5 m; beam 25.6 m; draft 6 m.

Type: Passenger vessel. MMSI: 310504000.

Date/timePositionNaut miles runAvg speedWind from/ knotsBaromVisibWave heightAir tempDewpointWater temp
2017-Aug-17 03:06N 56°55' W 001°54'515.7
2017-Aug-17 02:49N 56°59' W 001°51'515.4
2017-Aug-17 02:30N 57°04' W 001°49'815.4
2017-Aug-17 02:01N 57°11' W 001°44'715.0
2017-Aug-17 01:31N 57°18' W 001°40'1414.7
2017-Aug-17 00:33N 57°32' W 001°33'114.6
2017-Aug-17 00:30N 57°32' W 001°33'714.4
2017-Aug-17 00:00N 57°39' W 001°40'714.6
2017-Aug-16 23:30N 57°45' W 001°47'815.4
2017-Aug-16 23:00N 57°51' W 001°56'5115.6
2017-Aug-16 19:46N 58°33' W 002°50'416.0
2017-Aug-16 19:30N 58°36' W 002°53'815.7
2017-Aug-16 19:00N 58°42' W 003°04'816.5
2017-Aug-16 18:30N 58°43' W 003°20'917.3
2017-Aug-16 18:00N 58°43' W 003°36'817.1
2017-Aug-16 17:30N 58°43' W 003°53'917.2
2017-Aug-16 17:01N 58°43' W 004°09'917.5
2017-Aug-16 16:30N 58°43' W 004°26'3016.1
2017-Aug-16 14:39N 58°32' W 005°20'13117.1
2017-Aug-16 07:00N 56°36' W 007°12'4816.0 120 / 251011.010.8 14.511.712.0
2017-Aug-16 03:58N 55°49' W 006°56'815.7
2017-Aug-16 03:28N 55°42' W 006°47'6215.9
2017-Aug-15 23:33N 54°57' W 005°32'117.6
2017-Aug-15 23:29N 54°56' W 005°32'918.0
2017-Aug-15 23:01N 54°48' W 005°24'918.1
2017-Aug-15 22:31N 54°40' W 005°19'918.2
2017-Aug-15 22:01N 54°31' W 005°15'917.4
2017-Aug-15 21:31N 54°22' W 005°15'918.1
2017-Aug-15 21:01N 54°14' W 005°20'917.9
2017-Aug-15 20:30N 54°05' W 005°26'1217.5
2017-Aug-15 19:49N 53°54' W 005°34'86 4.8
2017-Aug-15 01:49N 52°30' W 005°56'619.0
2017-Aug-15 01:30N 52°24' W 005°57'918.9
2017-Aug-15 01:01N 52°14' W 005°58'918.0
2017-Aug-15 00:30N 52°06' W 006°04'918.2
2017-Aug-15 00:01N 52°02' W 006°17'1018.6
2017-Aug-14 23:29N 51°59' W 006°32'1017.9
2017-Aug-14 22:55N 52°03' W 006°47'717.4
2017-Aug-14 22:31N 52°07' W 006°57'5 9.8
2017-Aug-14 22:00N 52°12' W 006°56'4 7.2
2017-Aug-14 21:30N 52°15' W 006°59'2 3.7
2017-Aug-14 21:00N 52°16' W 007°02'0 0.0
2017-Aug-14 19:17N 52°16' W 007°02'0 0.0
2017-Aug-14 18:47N 52°16' W 007°02'0 0.0
2017-Aug-14 18:23N 52°16' W 007°02'0 0.0
2017-Aug-14 15:29N 52°16' W 007°02'0 0.0
2017-Aug-14 14:53N 52°16' W 007°02'0 0.0
2017-Aug-14 14:29N 52°16' W 007°02'0 0.0
2017-Aug-14 13:59N 52°16' W 007°02'0 0.0
2017-Aug-14 13:29N 52°16' W 007°02'0 0.0
2017-Aug-14 12:59N 52°16' W 007°02'0 0.0
2017-Aug-14 12:29N 52°16' W 007°02'0 0.0
2017-Aug-14 11:47N 52°16' W 007°02'0 0.0
2017-Aug-14 09:53N 52°16' W 007°02'0 1.2
2017-Aug-14 09:30N 52°16' W 007°01'2 4.3
2017-Aug-14 08:59N 52°15' W 006°59'4 8.7
2017-Aug-14 08:30N 52°11' W 006°56'4 8.9
2017-Aug-14 08:00N 52°06' W 006°58'612.1
2017-Aug-14 07:30N 52°00' W 006°55'612.1
2017-Aug-14 06:59N 51°54' W 006°52'8612.1
2017-Aug-13 23:52N 50°34' W 006°03'512.0
2017-Aug-13 23:29N 50°30' W 005°60'612.0
2017-Aug-13 23:00N 50°25' W 005°57'611.9
2017-Aug-13 22:29N 50°19' W 005°54'612.1
2017-Aug-13 22:00N 50°13' W 005°54'611.8
2017-Aug-13 21:29N 50°07' W 005°54'612.2
2017-Aug-13 21:00N 50°01' W 005°54'612.0
2017-Aug-13 20:30N 49°55' W 005°54'2911.2
2017-Aug-13 17:57N 49°43' W 005°14'712.1
2017-Aug-13 17:24N 49°41' W 005°04'2111.9
2017-Aug-13 15:38N 49°45' W 004°32'312.0
2017-Aug-13 15:24N 49°45' W 004°28'612.0
2017-Aug-13 14:53N 49°47' W 004°19'512.0
2017-Aug-13 14:30N 49°48' W 004°12'814.9
2017-Aug-13 14:00N 49°48' W 004°00'237.1 190 / 51022.510.8 16.810.718.0
2017-Aug-13 13:57N 49°49' W 004°02'512.1
2017-Aug-13 13:30N 49°50' W 003°54'612.2
2017-Aug-13 13:00N 49°52' W 003°44'612.1
2017-Aug-13 12:30N 49°53' W 003°35'612.2
2017-Aug-13 12:00N 49°55' W 003°26'612.2
2017-Aug-13 11:30N 49°56' W 003°17'612.2
2017-Aug-13 11:00N 49°58' W 003°08'612.0
2017-Aug-13 10:30N 49°59' W 002°59'612.0
2017-Aug-13 10:00N 50°01' W 002°50'612.1
2017-Aug-13 09:30N 50°02' W 002°40'2512.8
2017-Aug-13 07:35N 50°09' W 002°04'218.8
2017-Aug-13 07:30N 50°09' W 002°01'919.5
2017-Aug-13 07:01N 50°12' W 001°47'1020.1
2017-Aug-13 06:30N 50°15' W 001°32'4620.5
2017-Aug-13 04:17N 50°26' W 000°23'619.2
2017-Aug-13 03:59N 50°28' W 000°14'918.6
2017-Aug-13 03:30N 50°31' W 000°01'918.1
2017-Aug-13 03:00N 50°34' E 000°13'917.6
2017-Aug-13 02:30N 50°36' E 000°26'816.7
2017-Aug-13 02:00N 50°39' E 000°38'816.5
2017-Aug-13 01:30N 50°44' E 000°48'916.3
2017-Aug-13 00:59N 50°49' E 000°60'816.5
2017-Aug-13 00:30N 50°55' E 001°08'917.3
2017-Aug-13 00:00N 51°02' E 001°16'510.9
2017-Aug-12 23:30N 51°07' E 001°20'1 1.1
2017-Aug-12 22:59N 51°07' E 001°19'0 0.0
2017-Aug-12 22:26N 51°07' E 001°19'0 0.0
2017-Aug-12 21:56N 51°07' E 001°19'0 0.0
2017-Aug-12 21:26N 51°07' E 001°19'0 0.0
2017-Aug-12 20:56N 51°07' E 001°19'0 0.0
2017-Aug-12 20:29N 51°07' E 001°19'0 0.0
2017-Aug-12 19:56N 51°07' E 001°19'0 0.0
2017-Aug-12 08:58N 51°07' E 001°19'0 0.0
2017-Aug-12 08:28N 51°07' E 001°19'0 0.0
2017-Aug-12 07:52N 51°07' E 001°19'0 0.0
2017-Aug-12 07:22N 51°07' E 001°19'0 0.0
2017-Aug-12 06:16N 51°07' E 001°19'0 0.0
2017-Aug-12 05:52N 51°07' E 001°19'0 0.0
2017-Aug-12 05:16N 51°07' E 001°19'0 0.0
2017-Aug-12 04:41N 51°07' E 001°19'0 0.8
2017-Aug-12 04:30N 51°07' E 001°20'4 8.4
2017-Aug-12 04:00N 51°08' E 001°26'611.5
2017-Aug-12 03:30N 51°10' E 001°35'713.7
2017-Aug-12 03:01N 51°13' E 001°44'713.8
2017-Aug-12 02:30N 51°20' E 001°49'612.5
2017-Aug-12 02:00N 51°25' E 001°53'611.7
2017-Aug-12 01:30N 51°29' E 001°60'713.8
2017-Aug-12 01:00N 51°34' E 002°08'714.2
2017-Aug-12 00:30N 51°39' E 002°16'1114.9
2017-Aug-11 23:47N 51°47' E 002°28'714.9
2017-Aug-11 23:20N 51°52' E 002°35'7714.8
2017-Aug-11 18:09N 53°08' E 002°40'212.5
2017-Aug-11 18:00N 53°10' E 002°41'24715.4
2017-Aug-11 02:00N 57°12' E 004°06'10321.1 210 / 201017.810.8 15.011.714.0
2017-Aug-10 21:07N 58°54' E 004°35'317.5
2017-Aug-10 20:57N 58°57' E 004°36'817.3
2017-Aug-10 20:29N 59°04' E 004°38'2117.4
2017-Aug-10 19:16N 59°25' E 004°44'518.1
2017-Aug-10 19:00N 59°30' E 004°45'917.9
2017-Aug-10 18:30N 59°39' E 004°48'918.0
2017-Aug-10 18:00N 59°48' E 004°50'917.8
2017-Aug-10 17:30N 59°57' E 004°53'917.7
2017-Aug-10 17:00N 60°06' E 004°54'815.2
2017-Aug-10 16:30N 60°10' E 005°08'612.7
2017-Aug-10 16:00N 60°16' E 005°09'612.3
2017-Aug-10 15:30N 60°22' E 005°10'5 9.2
2017-Aug-10 15:00N 60°24' E 005°18'0 0.3
2017-Aug-10 14:28N 60°24' E 005°19'0 0.0
2017-Aug-10 13:58N 60°24' E 005°19'0 0.0
2017-Aug-10 13:28N 60°24' E 005°19'0 0.0
2017-Aug-10 12:58N 60°24' E 005°19'0 0.0
2017-Aug-10 12:28N 60°24' E 005°19'0 0.0
2017-Aug-10 11:58N 60°24' E 005°19'0 0.0
2017-Aug-10 11:28N 60°24' E 005°19'0 0.0
2017-Aug-10 10:58N 60°24' E 005°19'0 0.0
2017-Aug-10 10:28N 60°24' E 005°19'0 0.0
2017-Aug-10 09:58N 60°24' E 005°19'0 0.0
2017-Aug-10 09:28N 60°24' E 005°19'0 0.0
2017-Aug-10 08:58N 60°24' E 005°19'0 0.0
2017-Aug-10 08:25N 60°24' E 005°19'0 0.0
2017-Aug-10 07:58N 60°24' E 005°19'0 0.0
2017-Aug-10 07:28N 60°24' E 005°19'0 0.0
2017-Aug-10 06:58N 60°24' E 005°19'0 0.0
2017-Aug-10 06:28N 60°24' E 005°19'0 0.0
2017-Aug-10 05:58N 60°24' E 005°19'0 0.0
2017-Aug-10 05:28N 60°24' E 005°19'0 0.0
2017-Aug-10 04:58N 60°24' E 005°19'0 1.0
2017-Aug-10 04:30N 60°24' E 005°18'4 8.0
2017-Aug-10 04:00N 60°23' E 005°10'5 9.1
2017-Aug-10 03:30N 60°18' E 005°12'5 9.6
2017-Aug-10 03:00N 60°13' E 005°10'510.4
2017-Aug-10 02:30N 60°09' E 005°16'5 9.9
2017-Aug-10 01:59N 60°04' E 005°19'4 8.9
2017-Aug-10 01:30N 60°00' E 005°21'4 8.5
2017-Aug-10 01:00N 59°57' E 005°26'4 8.2
2017-Aug-10 00:30N 59°54' E 005°31'4 8.2
2017-Aug-10 00:00N 59°50' E 005°34'3 5.3
2017-Aug-09 23:30N 59°50' E 005°39'5 8.9
2017-Aug-09 23:00N 59°54' E 005°44'4 8.4
2017-Aug-09 22:30N 59°57' E 005°49'5 8.7
2017-Aug-09 21:58N 60°01' E 005°55'4 8.7
2017-Aug-09 21:30N 60°04' E 006°00'4 8.6
2017-Aug-09 21:00N 60°07' E 006°06'4 8.5
2017-Aug-09 20:30N 60°11' E 006°04'4 8.3
2017-Aug-09 20:00N 60°14' E 006°10'5 9.0
2017-Aug-09 19:30N 60°19' E 006°14'4 8.8
2017-Aug-09 19:00N 60°22' E 006°20'4 8.7
2017-Aug-09 18:30N 60°25' E 006°27'4 8.6
2017-Aug-09 18:00N 60°27' E 006°34'4 8.3
2017-Aug-09 17:30N 60°26' E 006°42'4 8.6
2017-Aug-09 17:00N 60°28' E 006°49'4 7.8
2017-Aug-09 16:30N 60°31' E 006°55'3 0.3
2017-Aug-09 07:42N 60°34' E 006°55'0 0.3
2017-Aug-09 07:29N 60°34' E 006°55'0 0.1
2017-Aug-09 06:59N 60°34' E 006°55'0 0.1
2017-Aug-09 06:30N 60°34' E 006°55'0 0.1
2017-Aug-09 05:47N 60°34' E 006°55'1 2.4
2017-Aug-09 05:30N 60°33' E 006°55'4 9.0
2017-Aug-09 05:00N 60°29' E 006°52'510.9
2017-Aug-09 04:30N 60°26' E 006°43'510.4
2017-Aug-09 04:00N 60°26' E 006°32'510.9
2017-Aug-09 03:30N 60°23' E 006°23'510.8
2017-Aug-09 03:00N 60°19' E 006°15'510.6
2017-Aug-09 02:30N 60°15' E 006°10'510.4
2017-Aug-09 02:00N 60°11' E 006°04'510.3
2017-Aug-09 01:30N 60°05' E 006°03'510.9
2017-Aug-09 01:00N 60°01' E 005°56'511.0
2017-Aug-09 00:30N 59°57' E 005°49'510.9
2017-Aug-09 00:00N 59°53' E 005°42'510.8
2017-Aug-08 23:30N 59°48' E 005°36'5 9.8
2017-Aug-08 23:00N 59°53' E 005°32'510.8
2017-Aug-08 22:29N 59°57' E 005°25'510.6
2017-Aug-08 22:00N 60°02' E 005°19'510.8
2017-Aug-08 21:30N 60°07' E 005°18'5 9.6
2017-Aug-08 21:00N 60°10' E 005°11'510.3
2017-Aug-08 20:30N 60°09' E 005°01'714.6
2017-Aug-08 19:59N 60°10' E 004°46'14220.3
2017-Aug-08 13:00N 60°54' E 000°12'19616.9 330 / 91016.610.8 15.510.014.0
2017-Aug-08 01:23N 61°15' W 006°31'616.2
2017-Aug-08 01:00N 61°15' W 006°44'32116.9
2017-Aug-07 06:00N 62°54' W 017°36'   200 / 61013.810.8 12.0 8.412.0
Track history (hours):
 
Tides and Currents Weather Stations Pressure Air Temp Water Temp Dewpoint Dewpoint Depression Visibility Wind Speed Wind Dir Waves Ship Positions

Pacific Princess (Bermuda)

Last reported at 2017-Aug-17 03:06 UTC. Time now 2017-Aug-17 03:39 UTC.
Position N 56°55' W 001°54'.

Length 180.5 m; beam 25.6 m; draft 6 m.

Type: Passenger vessel. MMSI: 310504000.

Date/timePositionNaut miles runAvg speedWind from/ knotsBaromVisibWave heightAir tempDewpointWater temp
2017-Aug-17 03:06N 56°55' W 001°54'515.7
2017-Aug-17 02:49N 56°59' W 001°51'515.4
2017-Aug-17 02:30N 57°04' W 001°49'815.4
2017-Aug-17 02:01N 57°11' W 001°44'715.0
2017-Aug-17 01:31N 57°18' W 001°40'1414.7
2017-Aug-17 00:33N 57°32' W 001°33'114.6
2017-Aug-17 00:30N 57°32' W 001°33'714.4
2017-Aug-17 00:00N 57°39' W 001°40'714.6
2017-Aug-16 23:30N 57°45' W 001°47'815.4
2017-Aug-16 23:00N 57°51' W 001°56'5115.6
2017-Aug-16 19:46N 58°33' W 002°50'416.0
2017-Aug-16 19:30N 58°36' W 002°53'815.7
2017-Aug-16 19:00N 58°42' W 003°04'816.5
2017-Aug-16 18:30N 58°43' W 003°20'917.3
2017-Aug-16 18:00N 58°43' W 003°36'817.1
2017-Aug-16 17:30N 58°43' W 003°53'917.2
2017-Aug-16 17:01N 58°43' W 004°09'917.5
2017-Aug-16 16:30N 58°43' W 004°26'3016.1
2017-Aug-16 14:39N 58°32' W 005°20'13117.1
2017-Aug-16 07:00N 56°36' W 007°12'4816.0 120 / 251011.010.8 14.511.712.0
2017-Aug-16 03:58N 55°49' W 006°56'815.7
2017-Aug-16 03:28N 55°42' W 006°47'6215.9
2017-Aug-15 23:33N 54°57' W 005°32'117.6
2017-Aug-15 23:29N 54°56' W 005°32'918.0
2017-Aug-15 23:01N 54°48' W 005°24'918.1
2017-Aug-15 22:31N 54°40' W 005°19'918.2
2017-Aug-15 22:01N 54°31' W 005°15'917.4
2017-Aug-15 21:31N 54°22' W 005°15'918.1
2017-Aug-15 21:01N 54°14' W 005°20'917.9
2017-Aug-15 20:30N 54°05' W 005°26'1217.5
2017-Aug-15 19:49N 53°54' W 005°34'86 4.8
2017-Aug-15 01:49N 52°30' W 005°56'619.0
2017-Aug-15 01:30N 52°24' W 005°57'918.9
2017-Aug-15 01:01N 52°14' W 005°58'918.0
2017-Aug-15 00:30N 52°06' W 006°04'918.2
2017-Aug-15 00:01N 52°02' W 006°17'1018.6
2017-Aug-14 23:29N 51°59' W 006°32'1017.9
2017-Aug-14 22:55N 52°03' W 006°47'717.4
2017-Aug-14 22:31N 52°07' W 006°57'5 9.8
2017-Aug-14 22:00N 52°12' W 006°56'4 7.2
2017-Aug-14 21:30N 52°15' W 006°59'2 3.7
2017-Aug-14 21:00N 52°16' W 007°02'0 0.0
2017-Aug-14 19:17N 52°16' W 007°02'0 0.0
2017-Aug-14 18:47N 52°16' W 007°02'0 0.0
2017-Aug-14 18:23N 52°16' W 007°02'0 0.0
2017-Aug-14 15:29N 52°16' W 007°02'0 0.0
2017-Aug-14 14:53N 52°16' W 007°02'0 0.0
2017-Aug-14 14:29N 52°16' W 007°02'0 0.0
2017-Aug-14 13:59N 52°16' W 007°02'0 0.0
2017-Aug-14 13:29N 52°16' W 007°02'0 0.0
2017-Aug-14 12:59N 52°16' W 007°02'0 0.0
2017-Aug-14 12:29N 52°16' W 007°02'0 0.0
2017-Aug-14 11:47N 52°16' W 007°02'0 0.0
2017-Aug-14 09:53N 52°16' W 007°02'0 1.2
2017-Aug-14 09:30N 52°16' W 007°01'2 4.3
2017-Aug-14 08:59N 52°15' W 006°59'4 8.7
2017-Aug-14 08:30N 52°11' W 006°56'4 8.9
2017-Aug-14 08:00N 52°06' W 006°58'612.1
2017-Aug-14 07:30N 52°00' W 006°55'612.1
2017-Aug-14 06:59N 51°54' W 006°52'8612.1
2017-Aug-13 23:52N 50°34' W 006°03'512.0
2017-Aug-13 23:29N 50°30' W 005°60'612.0
2017-Aug-13 23:00N 50°25' W 005°57'611.9
2017-Aug-13 22:29N 50°19' W 005°54'612.1
2017-Aug-13 22:00N 50°13' W 005°54'611.8
2017-Aug-13 21:29N 50°07' W 005°54'612.2
2017-Aug-13 21:00N 50°01' W 005°54'612.0
2017-Aug-13 20:30N 49°55' W 005°54'2911.2
2017-Aug-13 17:57N 49°43' W 005°14'712.1
2017-Aug-13 17:24N 49°41' W 005°04'2111.9
2017-Aug-13 15:38N 49°45' W 004°32'312.0
2017-Aug-13 15:24N 49°45' W 004°28'612.0
2017-Aug-13 14:53N 49°47' W 004°19'512.0
2017-Aug-13 14:30N 49°48' W 004°12'814.9
2017-Aug-13 14:00N 49°48' W 004°00'237.1 190 / 51022.510.8 16.810.718.0
2017-Aug-13 13:57N 49°49' W 004°02'512.1
2017-Aug-13 13:30N 49°50' W 003°54'612.2
2017-Aug-13 13:00N 49°52' W 003°44'612.1
2017-Aug-13 12:30N 49°53' W 003°35'612.2
2017-Aug-13 12:00N 49°55' W 003°26'612.2
2017-Aug-13 11:30N 49°56' W 003°17'612.2
2017-Aug-13 11:00N 49°58' W 003°08'612.0
2017-Aug-13 10:30N 49°59' W 002°59'612.0
2017-Aug-13 10:00N 50°01' W 002°50'612.1
2017-Aug-13 09:30N 50°02' W 002°40'2512.8
2017-Aug-13 07:35N 50°09' W 002°04'218.8
2017-Aug-13 07:30N 50°09' W 002°01'919.5
2017-Aug-13 07:01N 50°12' W 001°47'1020.1
2017-Aug-13 06:30N 50°15' W 001°32'4620.5
2017-Aug-13 04:17N 50°26' W 000°23'619.2
2017-Aug-13 03:59N 50°28' W 000°14'918.6
2017-Aug-13 03:30N 50°31' W 000°01'918.1
2017-Aug-13 03:00N 50°34' E 000°13'917.6
2017-Aug-13 02:30N 50°36' E 000°26'816.7
2017-Aug-13 02:00N 50°39' E 000°38'816.5
2017-Aug-13 01:30N 50°44' E 000°48'916.3
2017-Aug-13 00:59N 50°49' E 000°60'816.5
2017-Aug-13 00:30N 50°55' E 001°08'917.3
2017-Aug-13 00:00N 51°02' E 001°16'510.9
2017-Aug-12 23:30N 51°07' E 001°20'1 1.1
2017-Aug-12 22:59N 51°07' E 001°19'0 0.0
2017-Aug-12 22:26N 51°07' E 001°19'0 0.0
2017-Aug-12 21:56N 51°07' E 001°19'0 0.0
2017-Aug-12 21:26N 51°07' E 001°19'0 0.0
2017-Aug-12 20:56N 51°07' E 001°19'0 0.0
2017-Aug-12 20:29N 51°07' E 001°19'0 0.0
2017-Aug-12 19:56N 51°07' E 001°19'0 0.0
2017-Aug-12 08:58N 51°07' E 001°19'0 0.0
2017-Aug-12 08:28N 51°07' E 001°19'0 0.0
2017-Aug-12 07:52N 51°07' E 001°19'0 0.0
2017-Aug-12 07:22N 51°07' E 001°19'0 0.0
2017-Aug-12 06:16N 51°07' E 001°19'0 0.0
2017-Aug-12 05:52N 51°07' E 001°19'0 0.0
2017-Aug-12 05:16N 51°07' E 001°19'0 0.0
2017-Aug-12 04:41N 51°07' E 001°19'0 0.8
2017-Aug-12 04:30N 51°07' E 001°20'4 8.4
2017-Aug-12 04:00N 51°08' E 001°26'611.5
2017-Aug-12 03:30N 51°10' E 001°35'713.7
2017-Aug-12 03:01N 51°13' E 001°44'713.8
2017-Aug-12 02:30N 51°20' E 001°49'612.5
2017-Aug-12 02:00N 51°25' E 001°53'611.7
2017-Aug-12 01:30N 51°29' E 001°60'713.8
2017-Aug-12 01:00N 51°34' E 002°08'714.2
2017-Aug-12 00:30N 51°39' E 002°16'1114.9
2017-Aug-11 23:47N 51°47' E 002°28'714.9
2017-Aug-11 23:20N 51°52' E 002°35'7714.8
2017-Aug-11 18:09N 53°08' E 002°40'212.5
2017-Aug-11 18:00N 53°10' E 002°41'24715.4
2017-Aug-11 02:00N 57°12' E 004°06'10321.1 210 / 201017.810.8 15.011.714.0
2017-Aug-10 21:07N 58°54' E 004°35'317.5
2017-Aug-10 20:57N 58°57' E 004°36'817.3
2017-Aug-10 20:29N 59°04' E 004°38'2117.4
2017-Aug-10 19:16N 59°25' E 004°44'518.1
2017-Aug-10 19:00N 59°30' E 004°45'917.9
2017-Aug-10 18:30N 59°39' E 004°48'918.0
2017-Aug-10 18:00N 59°48' E 004°50'917.8
2017-Aug-10 17:30N 59°57' E 004°53'917.7
2017-Aug-10 17:00N 60°06' E 004°54'815.2
2017-Aug-10 16:30N 60°10' E 005°08'612.7
2017-Aug-10 16:00N 60°16' E 005°09'612.3
2017-Aug-10 15:30N 60°22' E 005°10'5 9.2
2017-Aug-10 15:00N 60°24' E 005°18'0 0.3
2017-Aug-10 14:28N 60°24' E 005°19'0 0.0
2017-Aug-10 13:58N 60°24' E 005°19'0 0.0
2017-Aug-10 13:28N 60°24' E 005°19'0 0.0
2017-Aug-10 12:58N 60°24' E 005°19'0 0.0
2017-Aug-10 12:28N 60°24' E 005°19'0 0.0
2017-Aug-10 11:58N 60°24' E 005°19'0 0.0
2017-Aug-10 11:28N 60°24' E 005°19'0 0.0
2017-Aug-10 10:58N 60°24' E 005°19'0 0.0
2017-Aug-10 10:28N 60°24' E 005°19'0 0.0
2017-Aug-10 09:58N 60°24' E 005°19'0 0.0
2017-Aug-10 09:28N 60°24' E 005°19'0 0.0
2017-Aug-10 08:58N 60°24' E 005°19'0 0.0
2017-Aug-10 08:25N 60°24' E 005°19'0 0.0
2017-Aug-10 07:58N 60°24' E 005°19'0 0.0
2017-Aug-10 07:28N 60°24' E 005°19'0 0.0
2017-Aug-10 06:58N 60°24' E 005°19'0 0.0
2017-Aug-10 06:28N 60°24' E 005°19'0 0.0
2017-Aug-10 05:58N 60°24' E 005°19'0 0.0
2017-Aug-10 05:28N 60°24' E 005°19'0 0.0
2017-Aug-10 04:58N 60°24' E 005°19'0 1.0
2017-Aug-10 04:30N 60°24' E 005°18'4 8.0
2017-Aug-10 04:00N 60°23' E 005°10'5 9.1
2017-Aug-10 03:30N 60°18' E 005°12'5 9.6
2017-Aug-10 03:00N 60°13' E 005°10'510.4
2017-Aug-10 02:30N 60°09' E 005°16'5 9.9
2017-Aug-10 01:59N 60°04' E 005°19'4 8.9
2017-Aug-10 01:30N 60°00' E 005°21'4 8.5
2017-Aug-10 01:00N 59°57' E 005°26'4 8.2
2017-Aug-10 00:30N 59°54' E 005°31'4 8.2
2017-Aug-10 00:00N 59°50' E 005°34'3 5.3
2017-Aug-09 23:30N 59°50' E 005°39'5 8.9
2017-Aug-09 23:00N 59°54' E 005°44'4 8.4
2017-Aug-09 22:30N 59°57' E 005°49'5 8.7
2017-Aug-09 21:58N 60°01' E 005°55'4 8.7
2017-Aug-09 21:30N 60°04' E 006°00'4 8.6
2017-Aug-09 21:00N 60°07' E 006°06'4 8.5
2017-Aug-09 20:30N 60°11' E 006°04'4 8.3
2017-Aug-09 20:00N 60°14' E 006°10'5 9.0
2017-Aug-09 19:30N 60°19' E 006°14'4 8.8
2017-Aug-09 19:00N 60°22' E 006°20'4 8.7
2017-Aug-09 18:30N 60°25' E 006°27'4 8.6
2017-Aug-09 18:00N 60°27' E 006°34'4 8.3
2017-Aug-09 17:30N 60°26' E 006°42'4 8.6
2017-Aug-09 17:00N 60°28' E 006°49'4 7.8
2017-Aug-09 16:30N 60°31' E 006°55'3 0.3
2017-Aug-09 07:42N 60°34' E 006°55'0 0.3
2017-Aug-09 07:29N 60°34' E 006°55'0 0.1
2017-Aug-09 06:59N 60°34' E 006°55'0 0.1
2017-Aug-09 06:30N 60°34' E 006°55'0 0.1
2017-Aug-09 05:47N 60°34' E 006°55'1 2.4
2017-Aug-09 05:30N 60°33' E 006°55'4 9.0
2017-Aug-09 05:00N 60°29' E 006°52'510.9
2017-Aug-09 04:30N 60°26' E 006°43'510.4
2017-Aug-09 04:00N 60°26' E 006°32'510.9
2017-Aug-09 03:30N 60°23' E 006°23'510.8
2017-Aug-09 03:00N 60°19' E 006°15'510.6
2017-Aug-09 02:30N 60°15' E 006°10'510.4
2017-Aug-09 02:00N 60°11' E 006°04'510.3
2017-Aug-09 01:30N 60°05' E 006°03'510.9
2017-Aug-09 01:00N 60°01' E 005°56'511.0
2017-Aug-09 00:30N 59°57' E 005°49'510.9
2017-Aug-09 00:00N 59°53' E 005°42'510.8
2017-Aug-08 23:30N 59°48' E 005°36'5 9.8
2017-Aug-08 23:00N 59°53' E 005°32'510.8
2017-Aug-08 22:29N 59°57' E 005°25'510.6
2017-Aug-08 22:00N 60°02' E 005°19'510.8
2017-Aug-08 21:30N 60°07' E 005°18'5 9.6
2017-Aug-08 21:00N 60°10' E 005°11'510.3
2017-Aug-08 20:30N 60°09' E 005°01'714.6
2017-Aug-08 19:59N 60°10' E 004°46'14220.3
2017-Aug-08 13:00N 60°54' E 000°12'19616.9 330 / 91016.610.8 15.510.014.0
2017-Aug-08 01:23N 61°15' W 006°31'616.2
2017-Aug-08 01:00N 61°15' W 006°44'32116.9
2017-Aug-07 06:00N 62°54' W 017°36'   200 / 61013.810.8 12.0 8.412.0

Dump ship's entire track history